Time;durP1;ratioP1;P1;durP2;ratioP2;P2;SDS_P1;SDS_P2;PMS_P1;PMS_P2;Temp;Humidity;BMP_temperature;BMP_pressure;BME280_temperature;BME280_humidity;BME280_pressure;Samples;Min_cycle;Max_cycle;Signal;HPM_P1;HPM_P2
2021/05/03 04:01:06;;;;;;;5.30;4.80;;;;;;;22.88;48.07;98958.75;24748782;23;20281;-73
2021/05/03 04:11:14;;;;;;;5.00;4.60;;;;;;;22.88;48.21;98965.78;20660137;28;20254;-74
2021/05/03 04:21:22;;;;;;;4.87;4.57;;;;;;;22.88;47.87;98976.22;20666553;28;20210;-74
2021/05/03 04:31:24;;;;;;;4.40;4.10;;;;;;;22.88;48.08;98978.84;20652054;28;20641;-74
2021/05/03 04:41:26;;;;;;;4.90;4.60;;;;;;;22.87;48.06;98988.50;20664359;28;20264;-72
2021/05/03 04:51:28;;;;;;;5.10;4.70;;;;;;;22.89;47.95;99001.41;20663730;28;20218;-72
2021/05/03 05:01:30;;;;;;;4.43;4.13;;;;;;;22.89;47.95;98996.16;20661158;28;20226;-71
2021/05/03 05:11:32;;;;;;;4.60;4.27;;;;;;;22.89;47.91;99009.25;20633900;28;20215;-74
2021/05/03 05:21:36;;;;;;;4.90;4.37;;;;;;;22.91;48.12;99012.47;20622451;28;20281;-74
2021/05/03 05:31:37;;;;;;;4.40;4.10;;;;;;;22.95;48.12;99016.41;20627320;28;20609;-73
2021/05/03 05:41:40;;;;;;;5.53;5.03;;;;;;;22.65;45.61;99022.34;20636631;28;20234;-73
2021/05/03 05:51:43;;;;;;;5.43;4.90;;;;;;;22.42;43.89;99037.00;20649942;28;20216;-73
2021/05/03 06:01:45;;;;;;;5.23;4.80;;;;;;;22.66;44.64;99044.84;20635489;28;20782;-73
2021/05/03 06:11:47;;;;;;;10.90;6.80;;;;;;;22.80;44.95;99052.03;20637616;28;20222;-73
2021/05/03 06:21:49;;;;;;;8.47;6.60;;;;;;;22.91;45.11;99055.13;20642224;28;20211;-73
2021/05/03 06:31:52;;;;;;;8.93;6.67;;;;;;;23.08;45.13;99058.53;20617864;28;20223;-73
2021/05/03 06:41:55;;;;;;;10.03;5.73;;;;;;;23.16;45.37;99054.09;20640713;28;20278;-76
2021/05/03 06:51:56;;;;;;;8.87;5.93;;;;;;;23.29;45.33;99053.59;20617002;28;20273;-74
2021/05/03 07:01:59;;;;;;;6.60;5.43;;;;;;;23.40;44.94;99068.94;20622078;28;20219;-74
2021/05/03 07:12:08;;;;;;;8.77;6.00;;;;;;;23.50;45.06;99070.38;20644662;28;20219;-73
2021/05/03 07:22:11;;;;;;;7.80;4.70;;;;;;;23.63;44.77;99067.19;20630479;28;20568;-74
2021/05/03 07:32:13;;;;;;;8.47;5.20;;;;;;;23.75;44.79;99071.06;20623391;28;20211;-75
2021/05/03 07:42:15;;;;;;;4.50;4.13;;;;;;;23.85;44.90;99061.19;20641662;28;20273;-73
2021/05/03 07:52:17;;;;;;;5.00;4.60;;;;;;;23.79;44.72;99061.06;20642911;28;20285;-74
2021/05/03 08:02:20;;;;;;;4.53;4.13;;;;;;;23.93;44.73;99063.78;20645017;28;20231;-73
2021/05/03 08:12:22;;;;;;;4.30;3.90;;;;;;;24.07;44.34;99052.59;20640375;28;20341;-74
2021/05/03 08:22:24;;;;;;;4.03;3.73;;;;;;;24.14;44.42;99048.31;20643578;28;20258;-72
2021/05/03 08:32:26;;;;;;;4.30;4.00;;;;;;;24.15;44.55;99047.31;20628436;28;20227;-72
2021/05/03 08:42:28;;;;;;;4.40;4.00;;;;;;;24.25;44.15;99054.91;20612179;28;20265;-72
2021/05/03 08:52:38;;;;;;;4.33;3.93;;;;;;;24.32;44.23;99054.06;20627647;28;20222;-72
2021/05/03 09:02:40;;;;;;;4.60;4.20;;;;;;;24.47;43.87;99039.22;20644281;28;20295;-72
2021/05/03 09:12:42;;;;;;;3.50;3.30;;;;;;;24.55;44.15;99039.13;20652185;28;20643;-73
2021/05/03 09:22:48;;;;;;;3.60;3.40;;;;;;;24.53;44.34;99029.84;20627691;28;20556;-67
2021/05/03 09:32:50;;;;;;;5.10;3.57;;;;;;;24.66;44.49;99020.38;20617104;28;20281;-71
2021/05/03 09:42:53;;;;;;;7.43;4.03;;;;;;;24.69;44.55;99014.81;20635575;28;20219;-70
2021/05/03 09:53:02;;;;;;;5.40;3.17;;;;;;;24.81;44.26;99009.09;20626111;28;20285;-70
2021/05/03 10:03:34;;;;;;;5.57;3.30;;;;;;;24.98;43.99;98993.03;20640773;28;20663;-70
2021/05/03 10:13:37;;;;;;;3.70;3.40;;;;;;;24.92;44.55;98987.72;20622589;28;20215;-71
2021/05/03 10:23:40;;;;;;;4.63;3.40;;;;;;;24.96;44.33;98971.44;20648575;28;20203;-71
2021/05/03 10:33:41;;;;;;;2.90;2.60;;;;;;;25.00;44.34;98975.28;20634275;28;20646;-71
2021/05/03 10:43:44;;;;;;;3.43;3.13;;;;;;;24.96;44.65;98958.31;20646087;28;20214;-70
2021/05/03 10:53:46;;;;;;;3.13;2.83;;;;;;;25.05;44.51;98956.41;20649299;28;20284;-70
2021/05/03 11:04:12;;;;;;;3.60;2.87;;;;;;;25.03;44.45;98945.28;20643461;28;20215;-70
2021/05/03 11:14:16;;;;;;;2.63;2.43;;;;;;;25.20;44.74;98929.16;20621827;28;20231;-70
2021/05/03 11:24:20;;;;;;;3.27;2.80;;;;;;;25.32;44.60;98906.69;20636689;28;20274;-70
2021/05/03 11:34:27;;;;;;;2.77;2.57;;;;;;;25.31;44.53;98899.00;20599374;28;20290;-70
2021/05/03 11:44:47;;;;;;;3.20;2.30;;;;;;;25.45;44.30;98890.31;20595643;28;20222;-71
2021/05/03 11:54:48;;;;;;;2.90;2.70;;;;;;;25.53;44.28;98892.81;20612503;28;20218;-71
2021/05/03 12:04:51;;;;;;;3.10;2.23;;;;;;;25.55;44.14;98878.50;20622371;28;20270;-72
2021/05/03 12:14:52;;;;;;;2.60;2.40;;;;;;;25.56;44.49;98874.88;20620010;28;20223;-71
2021/05/03 12:24:59;;;;;;;2.60;2.40;;;;;;;25.49;44.51;98860.06;20632785;28;20238;-71
2021/05/03 12:35:05;;;;;;;3.67;2.40;;;;;;;25.34;44.86;98864.53;20655763;28;20254;-71
2021/05/03 12:45:28;;;;;;;2.50;2.13;;;;;;;25.28;44.74;98868.72;20639433;28;20869;-71
2021/05/03 12:55:35;;;;;;;2.00;1.70;;;;;;;25.40;44.64;98853.31;20653095;28;20222;-71
2021/05/03 13:05:41;;;;;;;2.20;2.10;;;;;;;25.44;44.67;98829.13;20656961;28;20226;-71
2021/05/03 13:36:32;;;;;;;2.30;2.10;;;;;;;25.39;45.11;98807.09;20625557;28;20215;-72
2021/05/03 13:46:35;;;;;;;2.10;2.00;;;;;;;25.38;44.99;98789.72;20645079;28;20751;-71
2021/05/03 13:56:37;;;;;;;2.37;2.17;;;;;;;25.40;45.15;98771.97;20623329;28;20222;-71
2021/05/03 14:06:39;;;;;;;4.43;1.90;;;;;;;25.33;45.06;98765.84;20641935;28;20224;-70
2021/05/03 14:16:41;;;;;;;2.27;1.70;;;;;;;25.27;45.27;98756.09;20640781;28;20298;-70
2021/05/03 14:26:45;;;;;;;2.10;1.90;;;;;;;25.23;45.36;98754.84;20652385;28;20218;-72
2021/05/03 14:36:48;;;;;;;1.90;1.80;;;;;;;25.25;45.31;98739.72;20651892;28;20687;-71
2021/05/03 14:46:53;;;;;;;2.30;1.60;;;;;;;25.19;46.00;98729.97;20652249;28;20215;-72
2021/05/03 14:56:57;;;;;;;3.30;2.07;;;;;;;25.17;46.02;98714.44;20623573;28;20266;-71
2021/05/03 15:07:01;;;;;;;15.23;4.70;;;;;;;25.19;47.09;98701.13;20644369;28;20226;-71
2021/05/03 15:27:25;;;;;;;5.47;3.97;;;;;;;25.12;49.11;98679.31;20649063;28;20277;-71
2021/05/03 15:37:27;;;;;;;14.83;4.17;;;;;;;25.09;48.95;98669.16;20632152;28;20270;-68
2021/05/03 15:47:29;;;;;;;10.00;4.20;;;;;;;25.00;48.73;98659.81;20641024;28;20280;-72
2021/05/03 15:57:31;;;;;;;7.13;3.63;;;;;;;24.91;48.37;98650.47;20647369;28;20815;-71
2021/05/03 16:07:33;;;;;;;6.73;4.30;;;;;;;24.87;47.99;98647.41;20646005;28;20222;-71
2021/05/03 16:17:35;;;;;;;10.73;3.97;;;;;;;24.81;47.72;98644.72;20646189;28;20219;-72
2021/05/03 16:27:37;;;;;;;7.87;3.53;;;;;;;24.74;47.72;98634.19;20647367;28;20251;-71
2021/05/03 16:37:39;;;;;;;6.87;3.30;;;;;;;24.69;47.73;98629.50;20644093;28;20292;-71
2021/05/03 16:47:42;;;;;;;5.10;3.80;;;;;;;24.65;47.69;98614.28;20644563;28;20223;-72
2021/05/03 16:57:43;;;;;;;5.20;3.70;;;;;;;24.59;47.69;98615.88;20645009;28;20278;-72
2021/05/03 17:07:46;;;;;;;5.00;3.90;;;;;;;24.52;47.54;98603.69;20660645;28;20293;-74
2021/05/03 17:17:47;;;;;;;6.60;3.87;;;;;;;24.42;47.37;98588.28;20675259;28;20231;-72
2021/05/03 17:27:50;;;;;;;7.97;3.80;;;;;;;24.37;47.47;98588.03;20678077;28;20277;-72
2021/05/03 17:37:52;;;;;;;10.60;4.13;;;;;;;24.31;47.57;98580.94;20653010;28;20281;-72
2021/05/03 17:47:55;;;;;;;4.07;3.13;;;;;;;24.26;47.57;98579.88;20673395;28;20639;-72
2021/05/03 17:57:57;;;;;;;5.30;3.73;;;;;;;24.21;47.41;98569.13;20685320;28;20223;-72
2021/05/03 18:08:00;;;;;;;6.33;3.80;;;;;;;24.15;47.47;98575.91;20671712;28;20634;-73
2021/05/03 18:18:02;;;;;;;9.00;4.53;;;;;;;24.10;47.66;98562.56;20670860;28;20326;-73
2021/05/03 18:28:05;;;;;;;7.77;3.90;;;;;;;24.05;47.63;98553.66;20661384;28;20273;-73
2021/05/03 18:38:06;;;;;;;3.50;3.20;;;;;;;24.01;47.30;98548.00;20686554;28;20219;-73
2021/05/03 18:48:10;;;;;;;5.93;3.60;;;;;;;23.96;47.31;98550.31;20662417;28;20212;-72
2021/05/03 18:58:11;;;;;;;5.47;3.77;;;;;;;23.93;47.45;98540.19;20682403;28;20218;-73
2021/05/03 19:08:14;;;;;;;6.73;4.40;;;;;;;23.87;47.23;98538.34;20677690;28;20219;-74
2021/05/03 19:18:16;;;;;;;4.73;3.70;;;;;;;23.84;47.35;98524.81;20671804;28;20819;-74
2021/05/03 19:28:18;;;;;;;9.50;5.23;;;;;;;23.84;47.86;98519.56;20685449;28;20568;-74
2021/05/03 19:38:21;;;;;;;8.57;4.27;;;;;;;23.83;48.40;98510.91;20681538;28;20218;-74
2021/05/03 19:48:26;;;;;;;6.57;4.27;;;;;;;23.82;48.65;98505.84;20650248;28;20215;-75
2021/05/03 20:08:49;;;;;;;9.40;4.50;;;;;;;23.79;48.41;98512.28;20637553;28;20265;-75
2021/05/03 20:18:53;;;;;;;6.00;5.50;;;;;;;23.74;46.82;98509.41;20639223;28;20223;-76
2021/05/03 20:28:56;;;;;;;8.60;6.20;;;;;;;23.50;42.19;98501.88;20647424;28;20222;-76
2021/05/03 20:49:17;;;;;;;7.60;4.90;;;;;;;23.50;46.03;98471.28;20645375;28;20295;-77
2021/05/03 20:59:19;;;;;;;8.40;4.97;;;;;;;23.54;46.62;98461.28;20683336;28;20218;-75
2021/05/03 21:09:22;;;;;;;5.67;5.10;;;;;;;23.55;47.10;98462.88;20675565;28;20223;-77
2021/05/03 21:19:23;;;;;;;6.97;5.73;;;;;;;23.52;47.25;98439.72;20670499;28;20223;-75
2021/05/03 21:29:26;;;;;;;6.47;5.60;;;;;;;23.53;47.58;98441.31;20668755;28;20269;-76
2021/05/03 21:39:27;;;;;;;5.90;5.40;;;;;;;23.52;47.72;98430.06;20674395;28;20292;-74
2021/05/03 21:49:30;;;;;;;6.03;4.70;;;;;;;23.52;47.89;98426.63;20665553;28;20211;-74
2021/05/03 21:59:32;;;;;;;6.23;5.37;;;;;;;23.51;47.95;98406.72;20660746;28;20215;-74
2021/05/03 22:09:34;;;;;;;7.47;5.20;;;;;;;23.48;47.87;98394.00;20636826;28;20309;-74
2021/05/03 22:19:38;;;;;;;5.43;4.93;;;;;;;23.45;47.86;98381.28;20667777;28;20219;-75
2021/05/03 22:29:41;;;;;;;5.23;4.73;;;;;;;23.45;47.81;98381.28;20652770;28;20207;-76
